Knight, Indiana
Current Conditions -  °F | °C
As of 10:54 PM on Saturday 22 Nov 2014 (Local Time) from KEVV Reporting Station
Clear Clear  
Wind Chill: 54°   Ceiling: Unl
Heat Index: 54°   Visibility: 10mi
Dew Point: 35°   Wind: 0mph
Humidity: 49%   Direction: NA
Pressure: 30.01"   Gusts: NA
Location:  38.0153°N, 87.5343°W
Report Text: KEVV 230454Z AUTO 00000KT 10SM CLR 12/02 A3001 RMK AO2 SLP161 T01220017
Loading
Personal Weather Stations






























Interactive Weather Map New forecast layout! Learn more

10-Day Weather Forecast

Advertisements
Track Severe Weather on mobile